createdAt,value
2017-11-14T00:01:22.711Z,101224.27
2017-11-14T00:03:51.009Z,101231.56
2017-11-14T00:06:19.326Z,101225.57
2017-11-14T00:08:47.670Z,101237.93
2017-11-14T00:11:16.018Z,101238.62
2017-11-14T00:13:44.318Z,101242.48
2017-11-14T00:16:12.628Z,101243.64
2017-11-14T00:18:40.968Z,101244.61
2017-11-14T00:21:09.270Z,101240.34
2017-11-14T00:23:37.590Z,101234.66
2017-11-14T00:26:06.668Z,101244.81
2017-11-14T00:28:35.778Z,101245.61
2017-11-14T00:31:04.103Z,101248.56
2017-11-14T00:33:32.427Z,101236.44
2017-11-14T00:36:01.507Z,101237.03
2017-11-14T00:38:29.826Z,101239.70
2017-11-14T00:40:58.145Z,101240.61
2017-11-14T00:43:26.491Z,101246.21
2017-11-14T00:45:54.795Z,101257.77
2017-11-14T00:48:23.111Z,101251.48
2017-11-14T00:50:52.189Z,101256.36
2017-11-14T00:53:20.511Z,101262.61
2017-11-14T00:55:48.823Z,101259.52
2017-11-14T00:58:17.142Z,101262.22
2017-11-14T01:00:46.219Z,101263.08
2017-11-14T01:03:14.544Z,101261.58
2017-11-14T01:05:42.871Z,101257.22
2017-11-14T01:08:11.178Z,101265.94
2017-11-14T01:10:39.492Z,101263.17
2017-11-14T01:13:07.807Z,101260.33
2017-11-14T01:15:36.133Z,101261.59
2017-11-14T01:18:04.445Z,101274.00
2017-11-14T01:20:32.750Z,101267.55
2017-11-14T01:23:01.827Z,101273.55
2017-11-14T01:25:30.139Z,101278.77
2017-11-14T01:27:58.454Z,101279.17
2017-11-14T01:30:26.763Z,101273.38
2017-11-14T01:32:55.089Z,101271.09
2017-11-14T01:35:23.451Z,101279.03
2017-11-14T01:37:51.783Z,101273.58
2017-11-14T01:40:20.092Z,101283.02
2017-11-14T01:42:49.187Z,101271.19
2017-11-14T01:45:18.263Z,101277.20
2017-11-14T01:47:46.579Z,101273.43
2017-11-14T01:50:14.898Z,101272.09
2017-11-14T01:52:43.220Z,101270.42
2017-11-14T01:55:11.526Z,101277.63
2017-11-14T01:57:39.853Z,101277.63
2017-11-14T02:00:08.172Z,101280.95
2017-11-14T02:02:36.484Z,101283.64
2017-11-14T02:05:04.807Z,101285.66
2017-11-14T02:07:33.888Z,101292.77
2017-11-14T02:10:02.990Z,101295.39
2017-11-14T02:12:32.069Z,101298.08
2017-11-14T02:15:00.392Z,101297.27
2017-11-14T02:17:28.699Z,101303.31
2017-11-14T02:19:57.019Z,101298.00
2017-11-14T02:22:26.104Z,101301.04
2017-11-14T02:24:55.188Z,101310.53
2017-11-14T02:27:24.270Z,101310.51
2017-11-14T02:29:52.586Z,101301.63
2017-11-14T02:32:21.690Z,101299.74
2017-11-14T02:34:50.031Z,101306.53
2017-11-14T02:37:18.338Z,101308.08
2017-11-14T02:39:46.666Z,101311.66
2017-11-14T02:42:15.760Z,101311.73
2017-11-14T02:44:44.080Z,101308.50
2017-11-14T02:47:13.175Z,101309.44
2017-11-14T02:49:42.254Z,101307.95
2017-11-14T02:52:10.570Z,101318.63
2017-11-14T02:54:38.904Z,101322.84
2017-11-14T02:57:07.233Z,101330.74
2017-11-14T02:59:35.586Z,101333.69
2017-11-14T03:02:04.667Z,101334.17
2017-11-14T03:04:33.757Z,101334.60
2017-11-14T03:07:02.058Z,101338.36
2017-11-14T03:09:30.385Z,101338.62
2017-11-14T03:11:58.726Z,101343.16
2017-11-14T03:14:27.057Z,101340.38
2017-11-14T03:16:55.380Z,101339.28
2017-11-14T03:19:23.695Z,101342.95
2017-11-14T03:21:52.015Z,101346.80
2017-11-14T03:24:20.346Z,101345.52
2017-11-14T03:26:48.655Z,101339.83
2017-11-14T03:29:16.971Z,101333.37
2017-11-14T03:31:45.281Z,101339.15
2017-11-14T03:34:13.597Z,101341.38
2017-11-14T03:36:42.658Z,101343.55
2017-11-14T03:39:10.981Z,101337.88
2017-11-14T03:41:39.390Z,101346.15
2017-11-14T03:44:07.718Z,101353.34
2017-11-14T03:46:36.787Z,101355.10
2017-11-14T03:49:05.107Z,101358.80
2017-11-14T03:51:33.447Z,101357.18
2017-11-14T03:54:01.755Z,101360.69
2017-11-14T03:56:30.085Z,101365.08
2017-11-14T03:58:58.420Z,101370.27
2017-11-14T04:01:26.756Z,101376.49
2017-11-14T04:03:55.066Z,101378.85
2017-11-14T04:06:23.389Z,101374.23
2017-11-14T04:08:51.700Z,101375.61
2017-11-14T04:11:20.003Z,101382.14
2017-11-14T04:13:49.082Z,101380.23
2017-11-14T04:16:17.393Z,101382.27
2017-11-14T04:18:45.714Z,101381.12
2017-11-14T04:21:14.013Z,101381.12
2017-11-14T04:23:42.318Z,101376.17
2017-11-14T04:26:10.638Z,101372.52
2017-11-14T04:28:38.939Z,101379.13
2017-11-14T04:31:07.258Z,101369.84
2017-11-14T04:33:35.554Z,101370.45
2017-11-14T04:36:03.867Z,101369.14
2017-11-14T04:38:32.176Z,101374.41
2017-11-14T04:41:01.253Z,101370.94
2017-11-14T04:43:29.555Z,101368.09
2017-11-14T04:45:57.866Z,101378.44
2017-11-14T04:48:26.169Z,101385.38
2017-11-14T04:50:54.491Z,101382.97
2017-11-14T04:53:22.791Z,101382.45
2017-11-14T04:55:51.160Z,101381.45
2017-11-14T04:58:19.472Z,101384.38
2017-11-14T05:00:47.782Z,101380.59
2017-11-14T05:03:16.095Z,101381.92
2017-11-14T05:05:44.403Z,101378.23
2017-11-14T05:08:12.710Z,101378.65
2017-11-14T05:10:41.024Z,101381.98
2017-11-14T05:13:09.323Z,101379.22
2017-11-14T05:15:37.642Z,101384.25
2017-11-14T05:18:05.933Z,101377.13
2017-11-14T05:20:34.240Z,101378.29
2017-11-14T05:23:02.530Z,101384.91
2017-11-14T05:25:30.857Z,101380.52
2017-11-14T05:27:59.927Z,101382.13
2017-11-14T05:30:29.010Z,101385.19
2017-11-14T05:32:57.354Z,101385.04
2017-11-14T05:35:25.663Z,101382.69
2017-11-14T05:37:53.988Z,101399.52
2017-11-14T05:40:22.286Z,101385.78
2017-11-14T05:42:50.601Z,101390.88
2017-11-14T05:45:18.898Z,101399.09
2017-11-14T05:47:47.995Z,101398.04
2017-11-14T05:50:17.067Z,101402.98
2017-11-14T05:52:45.383Z,101404.46
2017-11-14T05:55:13.691Z,101398.86
2017-11-14T05:57:42.020Z,101408.15
2017-11-14T06:00:11.090Z,101399.09
2017-11-14T06:02:39.401Z,101407.13
2017-11-14T06:05:08.478Z,101407.38
2017-11-14T06:07:37.575Z,101419.80
2017-11-14T06:10:05.869Z,101415.78
2017-11-14T06:12:34.202Z,101420.08
2017-11-14T06:15:02.498Z,101422.85
2017-11-14T06:17:30.817Z,101415.88
2017-11-14T06:19:59.121Z,101418.47
2017-11-14T06:22:27.426Z,101419.34
2017-11-14T06:24:55.736Z,101418.14
2017-11-14T06:27:24.057Z,101425.62
2017-11-14T06:29:52.358Z,101426.37
2017-11-14T06:32:20.666Z,101419.84
2017-11-14T06:34:49.742Z,101421.05
2017-11-14T06:37:18.057Z,101420.27
2017-11-14T06:39:46.373Z,101425.81
2017-11-14T06:42:14.685Z,101429.50
2017-11-14T06:44:43.769Z,101434.22
2017-11-14T06:47:12.093Z,101433.27
2017-11-14T06:49:40.417Z,101434.36
2017-11-14T06:52:08.739Z,101430.34
2017-11-14T06:54:37.043Z,101423.55
2017-11-14T06:57:05.375Z,101426.59
2017-11-14T06:59:34.446Z,101429.60
2017-11-14T07:02:02.761Z,101431.25
2017-11-14T07:04:31.067Z,101432.50
2017-11-14T07:06:59.398Z,101432.02
2017-11-14T07:09:29.246Z,101433.87
2017-11-14T07:11:57.586Z,101442.36
2017-11-14T07:14:26.703Z,101446.20
2017-11-14T07:16:55.022Z,101450.89
2017-11-14T07:19:23.326Z,101459.36
2017-11-14T07:21:52.409Z,101462.12
2017-11-14T07:24:20.724Z,101463.02
2017-11-14T07:26:49.048Z,101464.45
2017-11-14T07:29:17.381Z,101463.70
2017-11-14T07:31:45.694Z,101461.63
2017-11-14T07:34:13.998Z,101467.70
2017-11-14T07:36:42.323Z,101460.81
2017-11-14T07:39:10.618Z,101455.36
2017-11-14T07:41:38.964Z,101464.42
2017-11-14T07:44:07.286Z,101459.41
2017-11-14T07:46:35.581Z,101466.30
2017-11-14T07:49:03.898Z,101466.97
2017-11-14T07:51:32.201Z,101469.49
2017-11-14T07:54:00.526Z,101467.31
2017-11-14T07:56:29.599Z,101470.91
2017-11-14T07:58:57.917Z,101474.20
2017-11-14T08:01:26.235Z,101477.87
2017-11-14T08:03:54.572Z,101469.05
2017-11-14T08:06:22.892Z,101475.28
2017-11-14T08:08:51.210Z,101474.19
2017-11-14T08:11:19.519Z,101473.02
2017-11-14T08:13:47.856Z,101479.23
2017-11-14T08:16:16.163Z,101476.38
2017-11-14T08:18:44.475Z,101478.48
2017-11-14T08:21:12.799Z,101482.92
2017-11-14T08:23:41.872Z,101488.25
2017-11-14T08:26:10.182Z,101493.38
2017-11-14T08:28:39.280Z,101494.44
2017-11-14T08:31:08.357Z,101493.98
2017-11-14T08:33:36.670Z,101494.73
2017-11-14T08:36:04.977Z,101485.05
2017-11-14T08:38:33.359Z,101488.06
2017-11-14T08:41:01.668Z,101491.08
2017-11-14T08:43:30.742Z,101488.53
2017-11-14T08:45:59.275Z,101492.98
2017-11-14T08:48:27.587Z,101492.09
2017-11-14T08:50:55.911Z,101498.81
2017-11-14T08:53:25.006Z,101494.59
2017-11-14T08:55:54.075Z,101496.85
2017-11-14T08:58:22.434Z,101491.98
2017-11-14T09:00:51.518Z,101491.22
2017-11-14T09:03:19.835Z,101494.31
2017-11-14T09:05:48.152Z,101495.04
2017-11-14T09:08:16.463Z,101500.54
2017-11-14T09:10:44.788Z,101495.98
2017-11-14T09:13:13.870Z,101492.72
2017-11-14T09:15:42.222Z,101500.20
2017-11-14T09:18:10.514Z,101492.70
2017-11-14T09:20:38.826Z,101493.75
2017-11-14T09:23:07.153Z,101495.18
2017-11-14T09:25:35.462Z,101495.88
2017-11-14T09:28:04.536Z,101499.91
2017-11-14T09:30:32.851Z,101508.47
2017-11-14T09:33:01.179Z,101507.64
2017-11-14T09:35:29.609Z,101504.70
2017-11-14T09:37:58.666Z,101503.19
2017-11-14T09:40:26.976Z,101507.80
2017-11-14T09:42:55.305Z,101507.78
2017-11-14T09:45:23.629Z,101501.70
2017-11-14T09:47:52.694Z,101511.23
2017-11-14T09:50:21.002Z,101513.62
2017-11-14T09:52:50.059Z,101519.67
2017-11-14T09:55:18.366Z,101518.81
2017-11-14T09:57:46.679Z,101512.55
2017-11-14T10:00:14.989Z,101511.47
2017-11-14T10:02:43.288Z,101499.34
2017-11-14T10:05:12.382Z,101502.59
2017-11-14T10:07:40.679Z,101505.52
2017-11-14T10:10:09.758Z,101498.02
2017-11-14T10:12:38.826Z,101495.23
2017-11-14T10:15:07.147Z,101497.80
2017-11-14T10:17:35.447Z,101497.41
2017-11-14T10:20:03.776Z,101497.21
2017-11-14T10:22:32.080Z,101494.02
2017-11-14T10:25:00.399Z,101492.00
2017-11-14T10:27:28.702Z,101495.13
2017-11-14T10:29:57.021Z,101504.38
2017-11-14T10:32:25.343Z,101495.31
2017-11-14T10:34:53.680Z,101497.96
2017-11-14T10:37:21.986Z,101502.81
2017-11-14T10:39:50.293Z,101497.40
2017-11-14T10:42:18.602Z,101499.38
2017-11-14T10:44:46.897Z,101498.99
2017-11-14T10:47:15.283Z,101503.59
2017-11-14T10:49:43.591Z,101508.48
2017-11-14T10:52:11.895Z,101505.09
2017-11-14T10:54:40.973Z,101510.50
2017-11-14T10:57:09.274Z,101491.37
2017-11-14T10:59:38.331Z,101496.06
2017-11-14T11:02:06.634Z,101496.72
2017-11-14T11:04:35.693Z,101491.01
2017-11-14T11:07:03.994Z,101484.99
2017-11-14T11:09:32.299Z,101489.72
2017-11-14T11:12:00.607Z,101492.33
2017-11-14T11:14:28.930Z,101490.66
2017-11-14T11:16:57.236Z,101486.95
2017-11-14T11:19:25.567Z,101485.40
2017-11-14T11:21:53.912Z,101486.72
2017-11-14T11:24:22.214Z,101480.36
2017-11-14T11:26:51.327Z,101480.67
2017-11-14T11:29:19.630Z,101463.78
2017-11-14T11:31:48.699Z,101469.80
2017-11-14T11:34:16.994Z,101474.30
2017-11-14T11:36:46.084Z,101475.66
2017-11-14T11:39:14.381Z,101473.05
2017-11-14T11:41:43.457Z,101470.23
2017-11-14T11:44:11.747Z,101467.82
2017-11-14T11:46:40.822Z,101469.81
2017-11-14T11:49:09.125Z,101462.92
2017-11-14T11:51:38.234Z,101466.50
2017-11-14T11:54:06.531Z,101463.33
2017-11-14T11:56:34.854Z,101464.09
2017-11-14T11:59:03.144Z,101459.91
2017-11-14T12:01:32.227Z,101457.92
2017-11-14T12:04:01.308Z,101452.11
2017-11-14T12:06:29.624Z,101451.98
2017-11-14T12:08:57.919Z,101456.46
2017-11-14T12:11:26.241Z,101451.25
2017-11-14T12:13:55.340Z,101450.83
2017-11-14T12:16:23.635Z,101457.61
2017-11-14T12:18:52.710Z,101452.08
2017-11-14T12:21:21.007Z,101452.38
2017-11-14T12:23:50.090Z,101453.93
2017-11-14T12:26:18.387Z,101450.36
2017-11-14T12:28:47.463Z,101446.82
2017-11-14T12:31:16.537Z,101446.39
2017-11-14T12:33:44.849Z,101434.08
2017-11-14T12:36:13.917Z,101439.81
2017-11-14T12:38:42.222Z,101443.39
2017-11-14T12:41:11.283Z,101443.58
2017-11-14T12:43:39.614Z,101433.91
2017-11-14T12:46:07.911Z,101434.98
2017-11-14T12:48:36.242Z,101428.20
2017-11-14T12:51:05.325Z,101429.66
2017-11-14T12:53:33.634Z,101426.31
2017-11-14T12:56:01.948Z,101423.37
2017-11-14T12:58:30.267Z,101422.77
2017-11-14T13:00:59.327Z,101419.77
2017-11-14T13:03:27.638Z,101418.94
2017-11-14T13:05:56.722Z,101421.64
2017-11-14T13:08:25.079Z,101423.81
2017-11-14T13:10:53.379Z,101421.94
2017-11-14T13:13:22.475Z,101424.84
2017-11-14T13:15:50.764Z,101427.25
2017-11-14T13:18:19.835Z,101416.50
2017-11-14T13:20:48.140Z,101411.09
2017-11-14T13:23:17.233Z,101414.11
2017-11-14T13:25:46.302Z,101415.35
2017-11-14T13:28:14.603Z,101415.58
2017-11-14T13:30:43.659Z,101403.27
2017-11-14T13:33:12.738Z,101407.64
2017-11-14T13:35:41.044Z,101406.17
2017-11-14T13:38:09.387Z,101409.09
2017-11-14T13:40:37.716Z,101408.19
2017-11-14T13:43:06.794Z,101407.02
2017-11-14T13:45:35.084Z,101414.75
2017-11-14T13:48:03.394Z,101401.91
2017-11-14T13:50:31.698Z,101404.33
2017-11-14T13:52:59.998Z,101406.39
2017-11-14T13:55:28.308Z,101409.97
2017-11-14T13:57:57.379Z,101404.21
2017-11-14T14:00:25.701Z,101411.17
2017-11-14T14:02:54.023Z,101416.59
2017-11-14T14:05:22.326Z,101413.86
2017-11-14T14:07:50.630Z,101415.23
2017-11-14T14:10:18.932Z,101416.87
2017-11-14T14:12:47.236Z,101416.77
2017-11-14T14:15:15.533Z,101417.80
2017-11-14T14:17:43.879Z,101421.66
2017-11-14T14:20:12.197Z,101411.33
2017-11-14T14:22:41.347Z,101411.13
2017-11-14T14:25:09.653Z,101409.55
2017-11-14T14:27:37.942Z,101408.19
2017-11-14T14:30:07.020Z,101409.42
2017-11-14T14:32:35.314Z,101409.84
2017-11-14T14:35:04.387Z,101413.80
2017-11-14T14:37:32.694Z,101413.98
2017-11-14T14:40:01.778Z,101410.95
2017-11-14T14:42:30.870Z,101407.61
2017-11-14T14:44:59.175Z,101411.75
2017-11-14T14:47:27.481Z,101410.73
2017-11-14T14:49:55.792Z,101402.07
2017-11-14T14:52:24.078Z,101408.91
2017-11-14T14:54:52.373Z,101406.19
2017-11-14T14:57:21.429Z,101403.59
2017-11-14T14:59:49.745Z,101400.88
2017-11-14T15:02:18.803Z,101398.25
2017-11-14T15:04:47.115Z,101398.49
2017-11-14T15:07:16.188Z,101399.97
2017-11-14T15:09:44.499Z,101402.34
2017-11-14T15:12:12.841Z,101402.20
2017-11-14T15:14:41.199Z,101403.05
2017-11-14T15:17:09.519Z,101402.73
2017-11-14T15:19:38.616Z,101409.02
2017-11-14T15:22:07.748Z,101401.88
2017-11-14T15:24:36.076Z,101403.59
2017-11-14T15:27:05.166Z,101398.85
2017-11-14T15:29:33.499Z,101394.81
2017-11-14T15:32:01.814Z,101397.52
2017-11-14T15:34:30.207Z,101391.55
2017-11-14T15:36:58.495Z,101389.58
2017-11-14T15:39:26.872Z,101390.32
2017-11-14T15:41:55.968Z,101388.30
2017-11-14T15:44:25.054Z,101391.97
2017-11-14T15:46:54.128Z,101391.67
2017-11-14T15:49:22.450Z,101398.05
2017-11-14T15:51:50.757Z,101392.10
2017-11-14T15:54:19.094Z,101391.73
2017-11-14T15:56:47.419Z,101388.98
2017-11-14T15:59:15.718Z,101401.63
2017-11-14T16:01:44.055Z,101391.16
2017-11-14T16:04:12.354Z,101387.86
2017-11-14T16:06:41.435Z,101392.19
2017-11-14T16:09:09.730Z,101395.31
2017-11-14T16:11:38.043Z,101395.44
2017-11-14T16:14:07.113Z,101395.73
2017-11-14T16:16:35.421Z,101394.38
2017-11-14T16:19:04.490Z,101398.78
2017-11-14T16:21:32.836Z,101396.86
2017-11-14T16:24:01.141Z,101401.20
2017-11-14T16:26:29.459Z,101403.73
2017-11-14T16:28:57.795Z,101399.98
2017-11-14T16:31:26.129Z,101409.16
2017-11-14T16:33:54.433Z,101413.95
2017-11-14T16:36:22.741Z,101409.48
2017-11-14T16:38:51.067Z,101412.69
2017-11-14T16:41:19.391Z,101420.20
2017-11-14T16:43:47.806Z,101421.59
2017-11-14T16:46:16.187Z,101420.87
2017-11-14T16:48:44.596Z,101411.67
2017-11-14T16:51:12.965Z,101425.97
2017-11-14T16:53:41.347Z,101415.34
2017-11-14T16:56:09.744Z,101418.14
2017-11-14T16:58:38.196Z,101418.56
2017-11-14T17:01:06.536Z,101417.84
2017-11-14T17:03:35.590Z,101418.28
2017-11-14T17:06:03.952Z,101418.93
2017-11-14T17:08:32.409Z,101413.67
2017-11-14T17:11:00.763Z,101423.01
2017-11-14T17:13:29.128Z,101414.72
2017-11-14T17:15:57.527Z,101419.78
2017-11-14T17:18:26.614Z,101421.27
2017-11-14T17:20:54.989Z,101421.06
2017-11-14T17:23:23.309Z,101423.30
2017-11-14T17:25:51.665Z,101418.82
2017-11-14T17:28:20.856Z,101414.95
2017-11-14T17:30:49.967Z,101418.02
2017-11-14T17:33:18.295Z,101423.97
2017-11-14T17:35:46.632Z,101421.13
2017-11-14T17:38:14.943Z,101421.61
2017-11-14T17:40:43.288Z,101420.66
2017-11-14T17:43:11.642Z,101425.73
2017-11-14T17:45:40.758Z,101429.86
2017-11-14T17:48:09.078Z,101429.33
2017-11-14T17:50:37.377Z,101437.84
2017-11-14T17:53:05.696Z,101437.12
2017-11-14T17:55:34.039Z,101443.59
2017-11-14T17:58:02.350Z,101439.00
2017-11-14T18:00:30.690Z,101448.54
2017-11-14T18:02:59.013Z,101442.35
2017-11-14T18:05:27.391Z,101449.94
2017-11-14T18:07:55.736Z,101454.47
2017-11-14T18:10:24.853Z,101451.09
2017-11-14T18:12:53.168Z,101452.47
2017-11-14T18:15:21.593Z,101456.39
2017-11-14T18:17:50.790Z,101456.83
2017-11-14T18:20:19.903Z,101456.27
2017-11-14T18:22:48.228Z,101460.34
2017-11-14T18:25:16.623Z,101471.75
2017-11-14T18:27:45.014Z,101474.17
2017-11-14T18:30:14.097Z,101475.63
2017-11-14T18:32:42.449Z,101474.77
2017-11-14T18:35:10.791Z,101472.72
2017-11-14T18:37:39.136Z,101484.05
2017-11-14T18:40:08.244Z,101491.47
2017-11-14T18:42:37.368Z,101488.22
2017-11-14T18:45:05.735Z,101485.95
2017-11-14T18:47:34.086Z,101493.95
2017-11-14T18:50:02.457Z,101497.94
2017-11-14T18:52:30.806Z,101503.53
2017-11-14T18:54:59.129Z,101498.09
2017-11-14T18:57:28.259Z,101504.59
2017-11-14T18:59:56.598Z,101503.30
2017-11-14T19:02:25.734Z,101504.34
2017-11-14T19:04:54.041Z,101503.79
2017-11-14T19:07:22.428Z,101504.44
2017-11-14T19:09:50.836Z,101501.58
2017-11-14T19:12:19.173Z,101508.44
2017-11-14T19:14:47.525Z,101504.80
2017-11-14T19:17:15.877Z,101505.80
2017-11-14T19:19:44.240Z,101516.52
2017-11-14T19:22:12.588Z,101508.42
2017-11-14T19:24:40.923Z,101513.05
2017-11-14T19:27:09.272Z,101516.28
2017-11-14T19:29:37.653Z,101515.92
2017-11-14T19:32:05.995Z,101511.02
2017-11-14T19:34:34.417Z,101513.44
2017-11-14T19:37:03.506Z,101511.25
2017-11-14T19:39:32.621Z,101511.87
2017-11-14T19:42:00.934Z,101509.10
2017-11-14T19:44:29.286Z,101519.36
2017-11-14T19:46:57.634Z,101523.58
2017-11-14T19:49:26.050Z,101518.49
2017-11-14T19:51:54.396Z,101527.81
2017-11-14T19:54:22.741Z,101532.31
2017-11-14T19:56:51.084Z,101537.23
2017-11-14T19:59:19.431Z,101544.92
2017-11-14T20:01:47.773Z,101548.13
2017-11-14T20:04:16.151Z,101541.89
2017-11-14T20:06:44.484Z,101548.13
2017-11-14T20:09:13.578Z,101551.05
2017-11-14T20:11:41.897Z,101548.66
2017-11-14T20:14:10.267Z,101545.78
2017-11-14T20:16:39.115Z,101554.63
2017-11-14T20:19:08.207Z,101545.73
2017-11-14T20:21:37.304Z,101554.69
2017-11-14T20:24:06.404Z,101549.98
2017-11-14T20:26:34.742Z,101548.31
2017-11-14T20:29:03.114Z,101551.46
2017-11-14T20:31:31.427Z,101553.09
2017-11-14T20:34:01.156Z,101554.38
2017-11-14T20:36:29.495Z,101557.08
2017-11-14T20:38:57.831Z,101563.66
2017-11-14T20:41:26.171Z,101567.41
2017-11-14T20:43:55.275Z,101568.48
2017-11-14T20:46:24.370Z,101579.33
2017-11-14T20:48:53.457Z,101575.73
2017-11-14T20:51:22.554Z,101579.78
2017-11-14T20:53:51.690Z,101578.94
2017-11-14T20:56:20.039Z,101580.78
2017-11-14T20:58:49.155Z,101581.30
2017-11-14T21:01:17.461Z,101585.00
2017-11-14T21:03:45.819Z,101585.70
2017-11-14T21:06:14.133Z,101590.16
2017-11-14T21:08:42.500Z,101586.92
2017-11-14T21:11:10.923Z,101590.85
2017-11-14T21:13:40.025Z,101592.61
2017-11-14T21:16:09.117Z,101587.65
2017-11-14T21:18:37.565Z,101592.39
2017-11-14T21:21:05.885Z,101591.91
2017-11-14T21:23:34.271Z,101586.23
2017-11-14T21:26:02.619Z,101591.12
2017-11-14T21:28:31.742Z,101587.06
2017-11-14T21:31:00.051Z,101587.75
2017-11-14T21:33:28.449Z,101592.64
2017-11-14T21:35:56.930Z,101592.54
2017-11-14T21:38:25.246Z,101587.05
2017-11-14T21:40:54.403Z,101591.16
2017-11-14T21:43:22.736Z,101591.57
2017-11-14T21:45:51.103Z,101594.23
2017-11-14T21:48:19.437Z,101581.36
2017-11-14T21:50:47.764Z,101584.64
2017-11-14T21:53:16.155Z,101586.27
2017-11-14T21:55:44.486Z,101582.87
2017-11-14T21:58:12.811Z,101583.98
2017-11-14T22:00:41.162Z,101597.33
2017-11-14T22:03:10.270Z,101595.28
2017-11-14T22:05:38.630Z,101597.09
2017-11-14T22:08:07.725Z,101596.13
2017-11-14T22:10:36.842Z,101597.83
2017-11-14T22:13:05.179Z,101601.05
2017-11-14T22:15:33.544Z,101601.72
2017-11-14T22:18:01.923Z,101598.03
2017-11-14T22:20:30.258Z,101602.27
2017-11-14T22:22:58.599Z,101600.56
2017-11-14T22:25:26.956Z,101609.33
2017-11-14T22:27:55.294Z,101610.89
2017-11-14T22:30:23.674Z,101608.92
2017-11-14T22:32:52.030Z,101611.12
2017-11-14T22:35:21.301Z,101605.08
2017-11-14T22:37:49.666Z,101604.31
2017-11-14T22:40:18.034Z,101603.89
2017-11-14T22:42:46.386Z,101598.63
2017-11-14T22:45:14.725Z,101613.19
2017-11-14T22:47:43.053Z,101608.17
2017-11-14T22:50:11.402Z,101611.53
2017-11-14T22:52:39.789Z,101606.19
2017-11-14T22:55:08.167Z,101611.19
2017-11-14T22:57:36.555Z,101608.38
2017-11-14T23:00:04.939Z,101608.38
2017-11-14T23:02:33.325Z,101610.07
2017-11-14T23:05:01.725Z,101612.22
2017-11-14T23:07:30.104Z,101610.56
2017-11-14T23:09:58.444Z,101617.35
2017-11-14T23:12:26.860Z,101621.05
2017-11-14T23:14:55.237Z,101619.70
2017-11-14T23:17:23.572Z,101611.53
2017-11-14T23:19:52.680Z,101608.36
2017-11-14T23:22:21.091Z,101609.58
2017-11-14T23:24:49.469Z,101609.09
2017-11-14T23:27:17.950Z,101611.38
2017-11-14T23:29:46.362Z,101608.75
2017-11-14T23:32:14.747Z,101609.06
2017-11-14T23:34:43.879Z,101612.63
2017-11-14T23:37:12.283Z,101609.75
2017-11-14T23:39:40.622Z,101610.58
2017-11-14T23:42:08.951Z,101618.42
2017-11-14T23:44:37.295Z,101617.66
2017-11-14T23:47:06.868Z,101617.59
2017-11-14T23:49:36.017Z,101621.40
2017-11-14T23:52:04.501Z,101616.08
2017-11-14T23:54:32.962Z,101614.39
2017-11-14T23:57:01.525Z,101617.73
2017-11-14T23:59:30.739Z,101622.09
